sensor_id;sensor_type;location;lat;lon;timestamp;pressure;altitude;pressure_sealevel;temperature;humidity
9746;BME280;4912;50.836;12.958;2023-02-17T00:01:55;98277.03;;;10.29;66.34
9746;BME280;4912;50.836;12.958;2023-02-17T00:04:27;98293.31;;;10.26;66.73
9746;BME280;4912;50.836;12.958;2023-02-17T00:07:00;98288.41;;;10.31;66.83
9746;BME280;4912;50.836;12.958;2023-02-17T00:09:30;98282.88;;;10.31;67.01
9746;BME280;4912;50.836;12.958;2023-02-17T00:12:01;98274.38;;;10.25;67.17
9746;BME280;4912;50.836;12.958;2023-02-17T00:14:31;98275.94;;;10.26;67.08
9746;BME280;4912;50.836;12.958;2023-02-17T00:17:02;98272.09;;;10.23;67.05
9746;BME280;4912;50.836;12.958;2023-02-17T00:19:32;98281.00;;;10.18;67.24
9746;BME280;4912;50.836;12.958;2023-02-17T00:22:06;98269.94;;;10.18;67.35
9746;BME280;4912;50.836;12.958;2023-02-17T00:24:38;98283.53;;;10.13;67.49
9746;BME280;4912;50.836;12.958;2023-02-17T00:27:10;98282.78;;;10.12;68.03
9746;BME280;4912;50.836;12.958;2023-02-17T00:29:40;98272.38;;;10.16;69.65
9746;BME280;4912;50.836;12.958;2023-02-17T00:32:11;98273.50;;;10.28;69.48
9746;BME280;4912;50.836;12.958;2023-02-17T00:34:41;98265.41;;;10.12;70.80
9746;BME280;4912;50.836;12.958;2023-02-17T00:37:15;98262.75;;;10.08;71.65
9746;BME280;4912;50.836;12.958;2023-02-17T00:39:45;98258.34;;;10.11;72.37
9746;BME280;4912;50.836;12.958;2023-02-17T00:42:18;98260.16;;;10.05;72.03
9746;BME280;4912;50.836;12.958;2023-02-17T00:44:48;98252.31;;;10.03;72.51
9746;BME280;4912;50.836;12.958;2023-02-17T00:47:19;98243.06;;;9.97;72.34
9746;BME280;4912;50.836;12.958;2023-02-17T00:49:50;98244.59;;;9.98;72.19
9746;BME280;4912;50.836;12.958;2023-02-17T00:52:23;98239.34;;;9.91;72.06
9746;BME280;4912;50.836;12.958;2023-02-17T00:54:54;98234.06;;;9.84;72.44
9746;BME280;4912;50.836;12.958;2023-02-17T00:57:24;98242.06;;;9.82;72.51
9746;BME280;4912;50.836;12.958;2023-02-17T00:59:58;98243.66;;;9.92;71.87
9746;BME280;4912;50.836;12.958;2023-02-17T01:02:28;98229.78;;;9.83;72.06
9746;BME280;4912;50.836;12.958;2023-02-17T01:04:59;98228.28;;;9.91;71.67
9746;BME280;4912;50.836;12.958;2023-02-17T01:07:32;98232.25;;;9.90;71.29
9746;BME280;4912;50.836;12.958;2023-02-17T01:10:04;98227.06;;;9.92;71.44
9746;BME280;4912;50.836;12.958;2023-02-17T01:12:35;98220.59;;;9.86;71.31
9746;BME280;4912;50.836;12.958;2023-02-17T01:15:06;98221.03;;;9.84;71.56
9746;BME280;4912;50.836;12.958;2023-02-17T01:17:37;98212.47;;;9.92;71.32
9746;BME280;4912;50.836;12.958;2023-02-17T01:20:08;98224.28;;;9.92;71.38
9746;BME280;4912;50.836;12.958;2023-02-17T01:22:42;98224.63;;;9.94;71.16
9746;BME280;4912;50.836;12.958;2023-02-17T01:25:12;98212.34;;;9.95;70.80
9746;BME280;4912;50.836;12.958;2023-02-17T01:27:43;98217.56;;;10.02;70.96
9746;BME280;4912;50.836;12.958;2023-02-17T01:30:13;98216.88;;;10.11;70.37
9746;BME280;4912;50.836;12.958;2023-02-17T01:32:44;98220.00;;;10.22;69.77
9746;BME280;4912;50.836;12.958;2023-02-17T01:35:15;98211.88;;;10.27;69.20
9746;BME280;4912;50.836;12.958;2023-02-17T01:37:51;98213.25;;;10.23;69.52
9746;BME280;4912;50.836;12.958;2023-02-17T01:40:22;98208.66;;;10.29;69.38
9746;BME280;4912;50.836;12.958;2023-02-17T01:42:53;98204.19;;;10.22;69.35
9746;BME280;4912;50.836;12.958;2023-02-17T01:45:32;98195.88;;;10.22;69.35
9746;BME280;4912;50.836;12.958;2023-02-17T01:48:08;98199.56;;;10.19;69.17
9746;BME280;4912;50.836;12.958;2023-02-17T01:50:44;98191.56;;;10.21;69.30
9746;BME280;4912;50.836;12.958;2023-02-17T01:53:23;98188.66;;;10.25;69.25
9746;BME280;4912;50.836;12.958;2023-02-17T01:55:58;98185.16;;;10.24;69.03
9746;BME280;4912;50.836;12.958;2023-02-17T01:58:29;98185.00;;;10.28;68.97
9746;BME280;4912;50.836;12.958;2023-02-17T02:01:04;98170.56;;;10.33;68.70
9746;BME280;4912;50.836;12.958;2023-02-17T02:03:36;98162.25;;;10.24;68.88
9746;BME280;4912;50.836;12.958;2023-02-17T02:06:11;98160.19;;;10.15;69.19
9746;BME280;4912;50.836;12.958;2023-02-17T02:08:53;98162.38;;;10.20;69.41
9746;BME280;4912;50.836;12.958;2023-02-17T02:11:27;98160.03;;;10.10;69.59
9746;BME280;4912;50.836;12.958;2023-02-17T02:13:59;98152.81;;;10.12;69.64
9746;BME280;4912;50.836;12.958;2023-02-17T02:16:35;98161.88;;;10.13;69.66
9746;BME280;4912;50.836;12.958;2023-02-17T02:19:29;98159.56;;;10.11;69.40
9746;BME280;4912;50.836;12.958;2023-02-17T02:22:21;98147.59;;;10.14;69.73
9746;BME280;4912;50.836;12.958;2023-02-17T02:25:25;98145.19;;;10.16;69.28
9746;BME280;4912;50.836;12.958;2023-02-17T02:28:19;98151.13;;;10.15;69.08
9746;BME280;4912;50.836;12.958;2023-02-17T02:31:10;98150.06;;;10.12;69.32
9746;BME280;4912;50.836;12.958;2023-02-17T02:33:56;98143.09;;;10.08;69.60
9746;BME280;4912;50.836;12.958;2023-02-17T02:36:30;98147.13;;;10.07;69.73
9746;BME280;4912;50.836;12.958;2023-02-17T02:39:07;98142.66;;;10.00;70.16
9746;BME280;4912;50.836;12.958;2023-02-17T02:41:42;98134.81;;;9.99;70.37
9746;BME280;4912;50.836;12.958;2023-02-17T02:44:18;98123.59;;;10.02;70.17
9746;BME280;4912;50.836;12.958;2023-02-17T02:46:57;98134.47;;;9.97;70.44
9746;BME280;4912;50.836;12.958;2023-02-17T02:49:32;98129.56;;;9.92;70.61
9746;BME280;4912;50.836;12.958;2023-02-17T02:52:09;98135.06;;;9.92;70.94
9746;BME280;4912;50.836;12.958;2023-02-17T02:54:52;98133.84;;;9.93;71.02
9746;BME280;4912;50.836;12.958;2023-02-17T02:57:37;98115.72;;;9.92;70.88
9746;BME280;4912;50.836;12.958;2023-02-17T03:00:18;98106.22;;;9.93;70.99
9746;BME280;4912;50.836;12.958;2023-02-17T03:02:56;98107.16;;;9.99;71.09
9746;BME280;4912;50.836;12.958;2023-02-17T03:05:37;98103.31;;;9.96;71.10
9746;BME280;4912;50.836;12.958;2023-02-17T03:08:21;98104.22;;;9.93;71.34
9746;BME280;4912;50.836;12.958;2023-02-17T03:10:55;98093.50;;;9.95;71.42
9746;BME280;4912;50.836;12.958;2023-02-17T03:13:26;98093.44;;;9.86;71.87
9746;BME280;4912;50.836;12.958;2023-02-17T03:15:56;98110.34;;;9.88;72.09
9746;BME280;4912;50.836;12.958;2023-02-17T03:18:27;98097.44;;;9.85;72.28
9746;BME280;4912;50.836;12.958;2023-02-17T03:21:08;98089.47;;;9.87;72.41
9746;BME280;4912;50.836;12.958;2023-02-17T03:23:42;98093.78;;;9.97;72.13
9746;BME280;4912;50.836;12.958;2023-02-17T03:26:12;98093.94;;;9.94;72.31
9746;BME280;4912;50.836;12.958;2023-02-17T03:28:44;98101.13;;;9.91;72.79
9746;BME280;4912;50.836;12.958;2023-02-17T03:31:15;98113.41;;;9.81;74.20
9746;BME280;4912;50.836;12.958;2023-02-17T03:33:46;98086.03;;;9.74;75.62
9746;BME280;4912;50.836;12.958;2023-02-17T03:36:19;98089.56;;;9.74;76.00
9746;BME280;4912;50.836;12.958;2023-02-17T03:38:49;98079.28;;;9.75;76.33
9746;BME280;4912;50.836;12.958;2023-02-17T03:41:20;98086.19;;;9.70;76.35
9746;BME280;4912;50.836;12.958;2023-02-17T03:43:50;98086.19;;;9.70;76.85
9746;BME280;4912;50.836;12.958;2023-02-17T03:46:21;98097.38;;;9.67;77.23
9746;BME280;4912;50.836;12.958;2023-02-17T03:48:51;98081.88;;;9.69;77.91
9746;BME280;4912;50.836;12.958;2023-02-17T03:51:25;98103.94;;;9.60;79.16
9746;BME280;4912;50.836;12.958;2023-02-17T03:53:55;98094.06;;;9.50;80.75
9746;BME280;4912;50.836;12.958;2023-02-17T03:56:26;98081.09;;;9.60;81.02
9746;BME280;4912;50.836;12.958;2023-02-17T03:58:56;98093.66;;;9.61;81.90
9746;BME280;4912;50.836;12.958;2023-02-17T04:01:27;98094.72;;;9.54;85.59
9746;BME280;4912;50.836;12.958;2023-02-17T04:03:57;98092.31;;;9.34;89.42
9746;BME280;4912;50.836;12.958;2023-02-17T04:06:30;98096.44;;;9.30;92.90
9746;BME280;4912;50.836;12.958;2023-02-17T04:09:01;98096.56;;;9.26;96.02
9746;BME280;4912;50.836;12.958;2023-02-17T04:11:31;98102.31;;;9.10;100.00
9746;BME280;4912;50.836;12.958;2023-02-17T04:14:02;98104.06;;;8.95;100.00
9746;BME280;4912;50.836;12.958;2023-02-17T04:16:32;98090.97;;;8.86;100.00
9746;BME280;4912;50.836;12.958;2023-02-17T04:19:05;98100.44;;;8.85;100.00
9746;BME280;4912;50.836;12.958;2023-02-17T04:21:38;98109.31;;;8.80;100.00
9746;BME280;4912;50.836;12.958;2023-02-17T04:24:08;98106.72;;;8.64;100.00
9746;BME280;4912;50.836;12.958;2023-02-17T04:26:39;98090.97;;;8.65;100.00
9746;BME280;4912;50.836;12.958;2023-02-17T04:29:09;98080.50;;;8.59;100.00
9746;BME280;4912;50.836;12.958;2023-02-17T04:31:39;98085.03;;;8.53;100.00
9746;BME280;4912;50.836;12.958;2023-02-17T04:34:10;98087.22;;;8.58;100.00
9746;BME280;4912;50.836;12.958;2023-02-17T04:36:43;98080.38;;;8.63;100.00
9746;BME280;4912;50.836;12.958;2023-02-17T04:39:13;98078.44;;;8.73;100.00
9746;BME280;4912;50.836;12.958;2023-02-17T04:41:44;98078.63;;;8.78;100.00
9746;BME280;4912;50.836;12.958;2023-02-17T04:44:14;98076.81;;;8.84;100.00
9746;BME280;4912;50.836;12.958;2023-02-17T04:46:44;98080.25;;;8.88;100.00
9746;BME280;4912;50.836;12.958;2023-02-17T04:49:15;98084.09;;;8.91;100.00
9746;BME280;4912;50.836;12.958;2023-02-17T04:51:48;98073.88;;;9.00;100.00
9746;BME280;4912;50.836;12.958;2023-02-17T04:54:18;98061.31;;;8.99;100.00
9746;BME280;4912;50.836;12.958;2023-02-17T04:56:48;98065.09;;;8.93;100.00
9746;BME280;4912;50.836;12.958;2023-02-17T04:59:19;98076.13;;;8.93;100.00
9746;BME280;4912;50.836;12.958;2023-02-17T05:01:51;98077.94;;;8.87;100.00
9746;BME280;4912;50.836;12.958;2023-02-17T05:04:21;98074.25;;;8.90;100.00
9746;BME280;4912;50.836;12.958;2023-02-17T05:06:54;98074.72;;;8.88;100.00
9746;BME280;4912;50.836;12.958;2023-02-17T05:09:25;98070.88;;;8.86;100.00
9746;BME280;4912;50.836;12.958;2023-02-17T05:11:56;98061.19;;;8.81;100.00
9746;BME280;4912;50.836;12.958;2023-02-17T05:14:26;98059.63;;;8.80;100.00
9746;BME280;4912;50.836;12.958;2023-02-17T05:16:57;98062.25;;;8.84;100.00
9746;BME280;4912;50.836;12.958;2023-02-17T05:19:27;98055.41;;;8.88;100.00
9746;BME280;4912;50.836;12.958;2023-02-17T05:22:00;98061.19;;;8.81;100.00
9746;BME280;4912;50.836;12.958;2023-02-17T05:24:30;98045.44;;;8.91;100.00
9746;BME280;4912;50.836;12.958;2023-02-17T05:27:04;98045.25;;;8.85;100.00
9746;BME280;4912;50.836;12.958;2023-02-17T05:29:35;98033.94;;;8.83;100.00
9746;BME280;4912;50.836;12.958;2023-02-17T05:32:05;98032.56;;;8.88;100.00
9746;BME280;4912;50.836;12.958;2023-02-17T05:34:36;98046.38;;;8.88;100.00
9746;BME280;4912;50.836;12.958;2023-02-17T05:37:09;98042.56;;;8.94;100.00
9746;BME280;4912;50.836;12.958;2023-02-17T05:39:40;98051.81;;;9.00;100.00
9746;BME280;4912;50.836;12.958;2023-02-17T05:42:10;98043.72;;;9.06;100.00
9746;BME280;4912;50.836;12.958;2023-02-17T05:44:40;98057.19;;;9.04;100.00
9746;BME280;4912;50.836;12.958;2023-02-17T05:47:11;98042.28;;;9.01;100.00
9746;BME280;4912;50.836;12.958;2023-02-17T05:49:41;98036.69;;;9.14;100.00
9746;BME280;4912;50.836;12.958;2023-02-17T05:52:14;98049.28;;;9.15;100.00
9746;BME280;4912;50.836;12.958;2023-02-17T05:54:45;98050.19;;;9.12;100.00
9746;BME280;4912;50.836;12.958;2023-02-17T05:57:15;98035.72;;;9.08;100.00
9746;BME280;4912;50.836;12.958;2023-02-17T05:59:46;98050.03;;;9.16;100.00
9746;BME280;4912;50.836;12.958;2023-02-17T06:02:16;98048.41;;;9.27;100.00
9746;BME280;4912;50.836;12.958;2023-02-17T06:04:47;98048.69;;;9.20;100.00
9746;BME280;4912;50.836;12.958;2023-02-17T06:07:20;98049.31;;;9.24;100.00
9746;BME280;4912;50.836;12.958;2023-02-17T06:09:51;98052.38;;;9.26;100.00
9746;BME280;4912;50.836;12.958;2023-02-17T06:12:21;98051.50;;;9.29;100.00
9746;BME280;4912;50.836;12.958;2023-02-17T06:14:52;98047.31;;;9.25;100.00
9746;BME280;4912;50.836;12.958;2023-02-17T06:17:22;98048.56;;;9.24;100.00
9746;BME280;4912;50.836;12.958;2023-02-17T06:19:52;98048.38;;;9.18;100.00
9746;BME280;4912;50.836;12.958;2023-02-17T06:22:25;98044.25;;;9.23;100.00
9746;BME280;4912;50.836;12.958;2023-02-17T06:24:56;98043.47;;;9.22;100.00
9746;BME280;4912;50.836;12.958;2023-02-17T06:27:26;98054.34;;;9.17;100.00
9746;BME280;4912;50.836;12.958;2023-02-17T06:29:56;98042.25;;;9.23;100.00
9746;BME280;4912;50.836;12.958;2023-02-17T06:32:27;98050.84;;;9.25;100.00
9746;BME280;4912;50.836;12.958;2023-02-17T06:34:57;98058.09;;;9.32;100.00
9746;BME280;4912;50.836;12.958;2023-02-17T06:37:30;98062.53;;;9.29;100.00
9746;BME280;4912;50.836;12.958;2023-02-17T06:40:01;98060.06;;;9.31;100.00
9746;BME280;4912;50.836;12.958;2023-02-17T06:42:31;98058.56;;;9.30;100.00
9746;BME280;4912;50.836;12.958;2023-02-17T06:45:02;98068.25;;;9.35;100.00
9746;BME280;4912;50.836;12.958;2023-02-17T06:47:33;98068.00;;;9.20;100.00
9746;BME280;4912;50.836;12.958;2023-02-17T06:50:05;98071.69;;;9.17;100.00
9746;BME280;4912;50.836;12.958;2023-02-17T06:52:39;98070.75;;;9.20;100.00
9746;BME280;4912;50.836;12.958;2023-02-17T06:55:09;98062.75;;;9.13;100.00
9746;BME280;4912;50.836;12.958;2023-02-17T06:57:40;98065.50;;;9.13;100.00
9746;BME280;4912;50.836;12.958;2023-02-17T07:00:11;98063.41;;;9.17;100.00
9746;BME280;4912;50.836;12.958;2023-02-17T07:02:42;98065.25;;;9.20;100.00
9746;BME280;4912;50.836;12.958;2023-02-17T07:05:13;98057.72;;;9.21;100.00
9746;BME280;4912;50.836;12.958;2023-02-17T07:07:46;98082.13;;;9.22;100.00
9746;BME280;4912;50.836;12.958;2023-02-17T07:10:19;98070.13;;;9.16;100.00
9746;BME280;4912;50.836;12.958;2023-02-17T07:12:50;98066.16;;;9.17;100.00
9746;BME280;4912;50.836;12.958;2023-02-17T07:15:20;98067.53;;;9.13;100.00
9746;BME280;4912;50.836;12.958;2023-02-17T07:17:51;98075.69;;;9.25;100.00
9746;BME280;4912;50.836;12.958;2023-02-17T07:20:21;98081.28;;;9.34;100.00
9746;BME280;4912;50.836;12.958;2023-02-17T07:22:54;98061.78;;;9.29;100.00
9746;BME280;4912;50.836;12.958;2023-02-17T07:25:25;98061.31;;;9.30;100.00
9746;BME280;4912;50.836;12.958;2023-02-17T07:27:55;98063.75;;;9.28;100.00
9746;BME280;4912;50.836;12.958;2023-02-17T07:30:25;98060.66;;;9.26;100.00
9746;BME280;4912;50.836;12.958;2023-02-17T07:32:56;98056.25;;;9.29;100.00
9746;BME280;4912;50.836;12.958;2023-02-17T07:35:27;98051.94;;;9.28;100.00
9746;BME280;4912;50.836;12.958;2023-02-17T07:38:00;98047.03;;;9.32;100.00
9746;BME280;4912;50.836;12.958;2023-02-17T07:40:30;98037.22;;;9.31;100.00
9746;BME280;4912;50.836;12.958;2023-02-17T07:43:01;98033.75;;;9.39;100.00
9746;BME280;4912;50.836;12.958;2023-02-17T07:45:32;98045.13;;;9.51;100.00
9746;BME280;4912;50.836;12.958;2023-02-17T07:48:03;98019.66;;;9.56;100.00
9746;BME280;4912;50.836;12.958;2023-02-17T07:50:34;98018.91;;;9.55;100.00
9746;BME280;4912;50.836;12.958;2023-02-17T07:53:07;98019.66;;;9.56;100.00
9746;BME280;4912;50.836;12.958;2023-02-17T07:55:37;98012.03;;;9.60;100.00
9746;BME280;4912;50.836;12.958;2023-02-17T07:58:07;98019.38;;;9.63;100.00
9746;BME280;4912;50.836;12.958;2023-02-17T08:00:37;98011.44;;;9.65;100.00
9746;BME280;4912;50.836;12.958;2023-02-17T08:03:08;98020.16;;;9.63;100.00
9746;BME280;4912;50.836;12.958;2023-02-17T08:05:39;98028.78;;;9.65;100.00
9746;BME280;4912;50.836;12.958;2023-02-17T08:08:12;98025.53;;;9.67;100.00
9746;BME280;4912;50.836;12.958;2023-02-17T08:10:59;98020.16;;;9.72;100.00
9746;BME280;4912;50.836;12.958;2023-02-17T08:13:43;98027.06;;;9.68;100.00
9746;BME280;4912;50.836;12.958;2023-02-17T08:16:14;98030.78;;;9.74;100.00
9746;BME280;4912;50.836;12.958;2023-02-17T08:18:44;98040.94;;;9.77;100.00
9746;BME280;4912;50.836;12.958;2023-02-17T08:21:14;98030.81;;;9.83;100.00
9746;BME280;4912;50.836;12.958;2023-02-17T08:23:47;98027.41;;;9.79;100.00
9746;BME280;4912;50.836;12.958;2023-02-17T08:26:18;98044.00;;;9.79;100.00
9746;BME280;4912;50.836;12.958;2023-02-17T08:28:48;98038.34;;;9.82;100.00
9746;BME280;4912;50.836;12.958;2023-02-17T08:31:20;98039.22;;;9.79;100.00
9746;BME280;4912;50.836;12.958;2023-02-17T08:33:52;98040.63;;;9.84;100.00
9746;BME280;4912;50.836;12.958;2023-02-17T08:36:23;98037.84;;;9.84;100.00
9746;BME280;4912;50.836;12.958;2023-02-17T08:38:57;98033.59;;;9.92;100.00
9746;BME280;4912;50.836;12.958;2023-02-17T08:41:30;98052.31;;;9.88;100.00
9746;BME280;4912;50.836;12.958;2023-02-17T08:44:05;98030.22;;;9.88;100.00
9746;BME280;4912;50.836;12.958;2023-02-17T08:46:36;98035.72;;;9.88;100.00
9746;BME280;4912;50.836;12.958;2023-02-17T08:49:07;98037.88;;;9.93;100.00
9746;BME280;4912;50.836;12.958;2023-02-17T08:51:38;98029.00;;;9.89;100.00
9746;BME280;4912;50.836;12.958;2023-02-17T08:54:11;98031.16;;;9.94;100.00
9746;BME280;4912;50.836;12.958;2023-02-17T08:56:42;98019.16;;;9.97;100.00
9746;BME280;4912;50.836;12.958;2023-02-17T08:59:13;98024.72;;;10.06;100.00
9746;BME280;4912;50.836;12.958;2023-02-17T09:01:44;98019.47;;;10.08;100.00
9746;BME280;4912;50.836;12.958;2023-02-17T09:04:14;98018.41;;;10.15;100.00
9746;BME280;4912;50.836;12.958;2023-02-17T09:06:47;98019.53;;;10.17;100.00
9746;BME280;4912;50.836;12.958;2023-02-17T09:09:24;98013.06;;;10.20;100.00
9746;BME280;4912;50.836;12.958;2023-02-17T09:11:56;98012.44;;;10.25;100.00
9746;BME280;4912;50.836;12.958;2023-02-17T09:14:27;98006.94;;;10.35;100.00
9746;BME280;4912;50.836;12.958;2023-02-17T09:16:58;98008.91;;;10.43;100.00
9746;BME280;4912;50.836;12.958;2023-02-17T09:19:28;98005.84;;;10.41;100.00
9746;BME280;4912;50.836;12.958;2023-02-17T09:21:59;98006.13;;;10.71;100.00
9746;BME280;4912;50.836;12.958;2023-02-17T09:24:32;98000.03;;;11.08;99.05
9746;BME280;4912;50.836;12.958;2023-02-17T09:27:04;97985.19;;;11.30;95.94
9746;BME280;4912;50.836;12.958;2023-02-17T09:29:35;97995.44;;;11.38;94.77
9746;BME280;4912;50.836;12.958;2023-02-17T09:32:07;97987.78;;;11.33;94.84
9746;BME280;4912;50.836;12.958;2023-02-17T09:34:38;97982.75;;;11.23;95.11
9746;BME280;4912;50.836;12.958;2023-02-17T09:37:10;97978.41;;;11.31;94.79
9746;BME280;4912;50.836;12.958;2023-02-17T09:39:47;97973.50;;;11.26;94.77
9746;BME280;4912;50.836;12.958;2023-02-17T09:42:20;97973.59;;;11.40;94.25
9746;BME280;4912;50.836;12.958;2023-02-17T09:44:55;97967.63;;;11.33;94.15
9746;BME280;4912;50.836;12.958;2023-02-17T09:47:33;97956.03;;;11.43;93.59
9746;BME280;4912;50.836;12.958;2023-02-17T09:50:09;97960.72;;;11.28;94.08
9746;BME280;4912;50.836;12.958;2023-02-17T09:52:44;97953.25;;;11.11;95.53
9746;BME280;4912;50.836;12.958;2023-02-17T09:55:25;97959.56;;;11.11;96.44
9746;BME280;4912;50.836;12.958;2023-02-17T09:58:00;97955.06;;;11.23;96.33
9746;BME280;4912;50.836;12.958;2023-02-17T10:00:36;97960.47;;;11.17;95.84
9746;BME280;4912;50.836;12.958;2023-02-17T10:03:12;97951.25;;;11.11;96.32
9746;BME280;4912;50.836;12.958;2023-02-17T10:05:48;97952.88;;;11.27;96.14
9746;BME280;4912;50.836;12.958;2023-02-17T10:08:23;97959.44;;;11.38;95.23
9746;BME280;4912;50.836;12.958;2023-02-17T10:11:02;97958.38;;;11.36;95.65
9746;BME280;4912;50.836;12.958;2023-02-17T10:13:35;97937.63;;;11.31;95.55
9746;BME280;4912;50.836;12.958;2023-02-17T10:16:10;97944.53;;;11.36;95.58
9746;BME280;4912;50.836;12.958;2023-02-17T10:18:48;97950.19;;;11.41;95.68
9746;BME280;4912;50.836;12.958;2023-02-17T10:21:26;97948.41;;;11.29;96.09
9746;BME280;4912;50.836;12.958;2023-02-17T10:23:57;97945.22;;;11.22;96.92
9746;BME280;4912;50.836;12.958;2023-02-17T10:26:46;97942.91;;;11.20;97.49
9746;BME280;4912;50.836;12.958;2023-02-17T10:29:30;97920.72;;;11.29;97.25
9746;BME280;4912;50.836;12.958;2023-02-17T10:32:16;97924.91;;;11.48;95.76
9746;BME280;4912;50.836;12.958;2023-02-17T10:35:01;97900.31;;;11.65;94.74
9746;BME280;4912;50.836;12.958;2023-02-17T10:37:45;97913.00;;;11.57;94.45
9746;BME280;4912;50.836;12.958;2023-02-17T10:40:19;97910.66;;;11.65;94.51
9746;BME280;4912;50.836;12.958;2023-02-17T10:42:55;97891.25;;;11.88;92.63
9746;BME280;4912;50.836;12.958;2023-02-17T10:45:35;97899.06;;;11.90;91.73
9746;BME280;4912;50.836;12.958;2023-02-17T10:48:10;97894.06;;;11.79;92.09
9746;BME280;4912;50.836;12.958;2023-02-17T10:50:43;97885.41;;;11.86;92.54
9746;BME280;4912;50.836;12.958;2023-02-17T10:53:17;97875.75;;;11.97;91.61
9746;BME280;4912;50.836;12.958;2023-02-17T10:55:54;97867.22;;;11.85;91.89
9746;BME280;4912;50.836;12.958;2023-02-17T10:58:35;97882.72;;;11.77;92.19
9746;BME280;4912;50.836;12.958;2023-02-17T11:01:10;97881.81;;;11.71;92.77
9746;BME280;4912;50.836;12.958;2023-02-17T11:03:41;97867.72;;;11.60;93.72
9746;BME280;4912;50.836;12.958;2023-02-17T11:06:16;97863.06;;;11.66;93.73
9746;BME280;4912;50.836;12.958;2023-02-17T11:08:50;97852.72;;;11.67;93.43
9746;BME280;4912;50.836;12.958;2023-02-17T11:11:23;97861.41;;;11.60;94.46
9746;BME280;4912;50.836;12.958;2023-02-17T11:14:07;97854.28;;;11.44;97.01
9746;BME280;4912;50.836;12.958;2023-02-17T11:16:42;97854.28;;;11.44;98.25
9746;BME280;4912;50.836;12.958;2023-02-17T11:19:22;97836.31;;;11.39;99.75
9746;BME280;4912;50.836;12.958;2023-02-17T11:21:56;97848.47;;;11.42;100.00
9746;BME280;4912;50.836;12.958;2023-02-17T11:24:29;97838.31;;;11.39;100.00
9746;BME280;4912;50.836;12.958;2023-02-17T11:27:02;97841.16;;;11.30;100.00
9746;BME280;4912;50.836;12.958;2023-02-17T11:29:36;97833.50;;;11.25;100.00
9746;BME280;4912;50.836;12.958;2023-02-17T11:32:09;97819.16;;;11.26;100.00
9746;BME280;4912;50.836;12.958;2023-02-17T11:34:42;97826.47;;;11.38;100.00
9746;BME280;4912;50.836;12.958;2023-02-17T11:37:19;97821.91;;;11.50;100.00
9746;BME280;4912;50.836;12.958;2023-02-17T11:39:54;97821.25;;;11.55;100.00
9746;BME280;4912;50.836;12.958;2023-02-17T11:42:28;97818.88;;;11.48;100.00
9746;BME280;4912;50.836;12.958;2023-02-17T11:45:15;97805.00;;;11.48;100.00
9746;BME280;4912;50.836;12.958;2023-02-17T11:47:54;97810.16;;;11.55;100.00
9746;BME280;4912;50.836;12.958;2023-02-17T11:50:40;97805.19;;;11.83;98.97
9746;BME280;4912;50.836;12.958;2023-02-17T11:53:25;97799.06;;;12.08;96.68
9746;BME280;4912;50.836;12.958;2023-02-17T11:56:12;97778.50;;;12.15;96.00
9746;BME280;4912;50.836;12.958;2023-02-17T11:59:01;97786.84;;;12.15;96.21
9746;BME280;4912;50.836;12.958;2023-02-17T12:01:54;97780.63;;;12.20;95.63
9746;BME280;4912;50.836;12.958;2023-02-17T12:04:32;97779.41;;;12.06;96.42
9746;BME280;4912;50.836;12.958;2023-02-17T12:07:18;97777.56;;;12.03;97.28
9746;BME280;4912;50.836;12.958;2023-02-17T12:10:02;97773.25;;;12.02;97.47
9746;BME280;4912;50.836;12.958;2023-02-17T12:12:46;97770.69;;;12.13;96.57
9746;BME280;4912;50.836;12.958;2023-02-17T12:15:37;97788.94;;;12.05;97.02
9746;BME280;4912;50.836;12.958;2023-02-17T12:18:28;97779.75;;;12.14;96.91
9746;BME280;4912;50.836;12.958;2023-02-17T12:21:11;97767.72;;;12.17;97.11
9746;BME280;4912;50.836;12.958;2023-02-17T12:24:10;97785.59;;;12.16;97.00
9746;BME280;4912;50.836;12.958;2023-02-17T12:26:48;97773.66;;;12.10;97.59
9746;BME280;4912;50.836;12.958;2023-02-17T12:29:31;97762.84;;;12.12;97.19
9746;BME280;4912;50.836;12.958;2023-02-17T12:32:22;97768.13;;;11.95;97.84
9746;BME280;4912;50.836;12.958;2023-02-17T12:35:14;97755.19;;;11.92;98.39
9746;BME280;4912;50.836;12.958;2023-02-17T12:37:51;97782.75;;;11.96;98.34
9746;BME280;4912;50.836;12.958;2023-02-17T12:40:31;97770.69;;;11.99;98.27
9746;BME280;4912;50.836;12.958;2023-02-17T12:43:07;97763.13;;;12.14;97.07
9746;BME280;4912;50.836;12.958;2023-02-17T12:45:47;97773.09;;;12.06;97.08
9746;BME280;4912;50.836;12.958;2023-02-17T12:48:23;97784.34;;;12.02;96.77
9746;BME280;4912;50.836;12.958;2023-02-17T12:51:05;97757.97;;;12.07;97.35
9746;BME280;4912;50.836;12.958;2023-02-17T12:53:43;97751.84;;;12.03;96.77
9746;BME280;4912;50.836;12.958;2023-02-17T12:56:37;97741.72;;;12.00;97.15
9746;BME280;4912;50.836;12.958;2023-02-17T12:59:14;97748.69;;;12.10;96.31
9746;BME280;4912;50.836;12.958;2023-02-17T13:01:51;97747.84;;;12.18;95.76
9746;BME280;4912;50.836;12.958;2023-02-17T13:04:25;97749.53;;;12.16;95.69
9746;BME280;4912;50.836;12.958;2023-02-17T13:07:06;97717.59;;;12.20;95.39
9746;BME280;4912;50.836;12.958;2023-02-17T13:09:47;97719.72;;;12.11;95.59
9746;BME280;4912;50.836;12.958;2023-02-17T13:12:38;97711.69;;;12.13;95.92
9746;BME280;4912;50.836;12.958;2023-02-17T13:15:28;97719.56;;;12.35;95.45
9746;BME280;4912;50.836;12.958;2023-02-17T13:18:03;97710.50;;;12.34;94.39
9746;BME280;4912;50.836;12.958;2023-02-17T13:23:32;97703.16;;;12.51;93.58
9746;BME280;4912;50.836;12.958;2023-02-17T13:26:14;97696.81;;;12.65;92.68
9746;BME280;4912;50.836;12.958;2023-02-17T13:29:18;97711.66;;;12.62;92.49
9746;BME280;4912;50.836;12.958;2023-02-17T13:31:52;97709.31;;;12.76;91.09
9746;BME280;4912;50.836;12.958;2023-02-17T13:34:30;97682.84;;;12.60;91.84
9746;BME280;4912;50.836;12.958;2023-02-17T13:37:15;97730.31;;;12.62;92.57
9746;BME280;4912;50.836;12.958;2023-02-17T13:39:53;97706.63;;;12.66;92.45
9746;BME280;4912;50.836;12.958;2023-02-17T13:42:36;97725.53;;;12.62;91.91
9746;BME280;4912;50.836;12.958;2023-02-17T13:45:19;97708.03;;;12.56;92.66
9746;BME280;4912;50.836;12.958;2023-02-17T13:47:53;97694.50;;;12.64;92.45
9746;BME280;4912;50.836;12.958;2023-02-17T13:50:28;97708.38;;;12.64;92.53
9746;BME280;4912;50.836;12.958;2023-02-17T13:53:04;97694.25;;;12.82;91.21
9746;BME280;4912;50.836;12.958;2023-02-17T13:55:52;97726.09;;;12.87;90.33